Time;durP1;ratioP1;P1;durP2;ratioP2;P2;SDS_P1;SDS_P2;PMS_P1;PMS_P2;Temp;Humidity;BMP_temperature;BMP_pressure;BME280_temperature;BME280_humidity;BME280_pressure;Samples;Min_cycle;Max_cycle;Signal;HPM_P1;HPM_P2
2023/08/13 00:00:07;;;;;;;14.85;8.25;;;25.50;99.90;;;;;;7415516;19;19918;-80
2023/08/13 00:02:33;;;;;;;14.20;7.50;;;25.60;99.90;;;;;;7419003;19;19919;-81
2023/08/13 00:04:59;;;;;;;12.35;7.80;;;25.70;99.90;;;;;;7419218;19;19922;-80
2023/08/13 00:07:25;;;;;;;13.15;8.13;;;25.70;99.90;;;;;;7366196;19;19925;-80
2023/08/13 00:09:51;;;;;;;14.15;7.50;;;25.80;99.90;;;;;;7416068;19;20293;-80
2023/08/13 00:12:17;;;;;;;14.23;7.95;;;25.80;99.90;;;;;;7423347;19;19931;-80
2023/08/13 00:14:42;;;;;;;12.50;7.28;;;25.90;99.90;;;;;;7425286;19;20388;-80
2023/08/13 00:17:08;;;;;;;12.45;6.88;;;26.00;99.90;;;;;;7423414;19;19915;-79
2023/08/13 00:19:34;;;;;;;13.98;7.28;;;26.00;99.90;;;;;;7422781;19;19914;-79
2023/08/13 00:22:00;;;;;;;13.70;7.03;;;26.00;99.90;;;;;;7420708;19;19990;-79
2023/08/13 00:24:27;;;;;;;15.85;6.60;;;26.00;99.90;;;;;;7413702;19;19939;-78
2023/08/13 00:26:54;;;;;;;13.77;6.60;;;26.00;99.90;;;;;;7407620;19;20357;-78
2023/08/13 00:29:20;;;;;;;11.90;7.65;;;26.00;99.90;;;;;;7412977;19;19941;-79
2023/08/13 00:31:45;;;;;;;13.10;7.20;;;25.90;99.90;;;;;;7415706;19;19919;-81
2023/08/13 00:34:11;;;;;;;11.00;7.30;;;25.90;99.90;;;;;;7413086;19;20269;-79
2023/08/13 00:36:37;;;;;;;13.25;7.35;;;25.80;99.90;;;;;;7410691;19;19929;-78
2023/08/13 00:39:03;;;;;;;13.00;7.13;;;25.70;99.90;;;;;;7410785;19;19919;-79
2023/08/13 00:41:29;;;;;;;12.68;7.93;;;25.60;99.90;;;;;;7412472;19;19941;-78
2023/08/13 00:43:56;;;;;;;14.32;7.90;;;25.60;99.90;;;;;;7409814;19;19926;-79
2023/08/13 00:46:22;;;;;;;15.50;7.78;;;25.70;99.90;;;;;;7410716;19;19922;-79
2023/08/13 00:48:54;;;;;;;15.85;7.60;;;25.60;99.90;;;;;;7411113;19;19919;-79
2023/08/13 00:51:22;;;;;;;11.30;8.25;;;25.60;99.90;;;;;;7412562;19;19911;-80
2023/08/13 00:53:48;;;;;;;15.43;8.70;;;25.70;99.90;;;;;;7414592;19;19918;-79
2023/08/13 00:56:15;;;;;;;10.05;7.18;;;25.70;99.90;;;;;;7413599;19;20281;-79
2023/08/13 00:58:45;;;;;;;12.20;7.38;;;25.60;99.90;;;;;;7415973;19;19970;-79
2023/08/13 01:01:12;;;;;;;15.75;7.55;;;25.60;99.90;;;;;;7414341;19;19946;-79
2023/08/13 01:03:39;;;;;;;13.07;8.43;;;25.70;99.90;;;;;;7416340;19;19919;-79
2023/08/13 01:06:38;;;;;;;13.60;7.72;;;25.60;99.90;;;;;;7411905;19;19922;-79
2023/08/13 01:09:15;;;;;;;13.70;8.35;;;25.50;99.90;;;;;;7415791;19;19980;-79
2023/08/13 01:12:03;;;;;;;14.30;8.57;;;25.40;99.90;;;;;;7412746;19;19919;-80
2023/08/13 01:14:48;;;;;;;13.35;8.27;;;25.40;99.90;;;;;;7414220;19;19926;-79
2023/08/13 01:17:17;;;;;;;15.57;8.65;;;25.40;99.90;;;;;;7412691;19;19919;-79
2023/08/13 01:19:43;;;;;;;14.32;7.90;;;25.50;99.90;;;;;;7411986;19;19938;-80
2023/08/13 01:22:09;;;;;;;17.20;9.02;;;25.50;99.90;;;;;;7412288;19;19914;-80
2023/08/13 01:24:35;;;;;;;12.88;7.80;;;25.50;99.90;;;;;;7416502;19;19914;-78
2023/08/13 01:27:31;;;;;;;13.40;7.78;;;25.50;99.90;;;;;;7413639;19;19922;-78
2023/08/13 01:30:10;;;;;;;10.60;7.53;;;25.60;99.90;;;;;;7413929;19;19918;-80
2023/08/13 01:32:55;;;;;;;15.80;8.55;;;25.60;99.90;;;;;;7417353;19;19918;-79
2023/08/13 01:35:22;;;;;;;16.80;10.05;;;25.60;99.90;;;;;;7413233;19;20018;-79
2023/08/13 01:37:51;;;;;;;16.48;9.60;;;25.60;99.90;;;;;;7414016;19;19926;-79
2023/08/13 01:40:17;;;;;;;17.25;10.35;;;25.50;99.90;;;;;;7408214;19;19922;-80
2023/08/13 01:42:43;;;;;;;16.75;10.50;;;25.40;99.90;;;;;;7416180;19;19929;-79
2023/08/13 01:45:09;;;;;;;19.52;12.02;;;25.30;99.90;;;;;;7411733;19;19954;-79
2023/08/13 01:47:36;;;;;;;17.08;11.10;;;25.20;99.90;;;;;;7420998;19;19918;-79
2023/08/13 01:50:04;;;;;;;21.08;12.43;;;25.20;99.90;;;;;;7420418;19;20314;-79
2023/08/13 01:52:31;;;;;;;19.95;11.77;;;25.10;99.90;;;;;;7415495;19;19930;-80
2023/08/13 01:54:58;;;;;;;20.23;11.88;;;25.10;99.90;;;;;;7416701;19;19918;-79
2023/08/13 01:57:24;;;;;;;17.17;11.85;;;25.00;99.90;;;;;;7411027;19;19918;-79
2023/08/13 01:59:49;;;;;;;19.33;12.30;;;25.00;99.90;;;;;;7414401;19;19918;-80
2023/08/13 02:02:15;;;;;;;23.13;13.70;;;24.90;99.90;;;;;;7415734;19;19945;-80
2023/08/13 02:04:41;;;;;;;22.77;13.00;;;24.80;99.90;;;;;;7417588;19;19911;-79
2023/08/13 02:07:07;;;;;;;17.60;12.05;;;24.80;99.90;;;;;;7411931;19;20051;-79
2023/08/13 02:09:33;;;;;;;20.20;12.18;;;24.80;99.90;;;;;;7410000;19;19926;-78
2023/08/13 02:11:59;;;;;;;21.23;14.07;;;24.80;99.90;;;;;;7410948;19;20264;-79
2023/08/13 02:14:24;;;;;;;18.55;11.82;;;24.80;99.90;;;;;;7407637;19;19922;-79
2023/08/13 02:16:51;;;;;;;20.27;13.27;;;24.80;99.90;;;;;;7413628;19;19999;-78
2023/08/13 02:19:16;;;;;;;19.25;13.73;;;24.80;99.90;;;;;;7390681;19;19918;-78
2023/08/13 02:21:42;;;;;;;20.35;12.57;;;24.80;99.90;;;;;;7412893;19;19918;-80
2023/08/13 02:24:08;;;;;;;21.63;12.52;;;24.80;99.90;;;;;;7413564;19;19954;-79
2023/08/13 02:26:35;;;;;;;17.38;11.88;;;24.80;99.90;;;;;;7414597;19;19919;-78
2023/08/13 02:29:01;;;;;;;22.20;13.85;;;24.80;99.90;;;;;;7413004;19;20327;-79
2023/08/13 02:31:27;;;;;;;22.75;13.93;;;24.80;99.90;;;;;;7413554;19;19927;-79
2023/08/13 02:33:53;;;;;;;21.73;13.60;;;24.70;99.90;;;;;;7409182;19;19919;-79
2023/08/13 02:36:19;;;;;;;20.20;13.27;;;24.70;99.90;;;;;;7410340;19;19956;-79
2023/08/13 02:38:44;;;;;;;19.48;13.07;;;24.70;99.90;;;;;;7380053;19;19918;-79
2023/08/13 02:41:10;;;;;;;19.90;12.07;;;24.60;99.90;;;;;;7404121;19;19915;-78
2023/08/13 02:43:55;;;;;;;18.10;12.38;;;24.60;99.90;;;;;;7412637;19;19933;-79
2023/08/13 02:46:23;;;;;;;21.65;12.55;;;24.60;99.90;;;;;;7412886;19;19922;-79
2023/08/13 02:48:50;;;;;;;18.80;12.43;;;24.60;99.90;;;;;;7415981;19;19925;-79
2023/08/13 02:51:16;;;;;;;20.83;12.68;;;24.60;99.90;;;;;;7411387;19;19926;-78
2023/08/13 02:53:42;;;;;;;21.02;13.13;;;24.50;99.90;;;;;;7414699;19;20055;-78
2023/08/13 02:56:09;;;;;;;19.45;12.98;;;24.50;99.90;;;;;;7410438;19;19907;-78
2023/08/13 02:58:35;;;;;;;16.40;11.18;;;24.40;99.90;;;;;;7415847;19;19931;-78
2023/08/13 03:01:01;;;;;;;18.45;10.80;;;24.40;99.90;;;;;;7414465;19;19922;-78
2023/08/13 03:03:27;;;;;;;17.23;11.18;;;24.50;99.90;;;;;;7411652;19;19907;-78
2023/08/13 03:05:53;;;;;;;16.55;10.35;;;24.50;99.90;;;;;;7414326;19;19974;-79
2023/08/13 03:08:20;;;;;;;18.75;11.95;;;24.50;99.90;;;;;;7410068;19;19966;-79
2023/08/13 03:10:45;;;;;;;17.13;11.90;;;24.50;99.90;;;;;;7412122;19;19923;-79
2023/08/13 03:13:11;;;;;;;15.93;10.30;;;24.50;99.90;;;;;;7414803;19;19907;-79
2023/08/13 03:15:37;;;;;;;16.42;11.05;;;24.60;99.90;;;;;;7411138;19;20335;-79
2023/08/13 03:18:03;;;;;;;18.40;11.80;;;24.50;99.90;;;;;;7415438;19;19929;-79
2023/08/13 03:20:29;;;;;;;15.15;10.50;;;24.60;99.90;;;;;;7410773;19;19923;-79
2023/08/13 03:22:55;;;;;;;20.27;11.82;;;24.50;99.90;;;;;;7407958;19;20009;-78
2023/08/13 03:25:21;;;;;;;18.25;11.32;;;24.50;99.90;;;;;;7411620;19;20654;-80
2023/08/13 03:27:48;;;;;;;18.05;10.50;;;24.50;99.90;;;;;;7413776;19;20383;-79
2023/08/13 03:30:14;;;;;;;18.85;11.20;;;24.50;99.90;;;;;;7410888;19;19907;-79
2023/08/13 03:32:40;;;;;;;18.13;11.52;;;24.50;99.90;;;;;;7414830;19;19906;-80
2023/08/13 03:35:07;;;;;;;19.63;10.35;;;24.50;99.90;;;;;;7411873;19;19936;-79
2023/08/13 03:37:32;;;;;;;20.33;14.00;;;24.50;99.90;;;;;;7412858;19;19926;-80
2023/08/13 03:40:00;;;;;;;17.58;10.75;;;24.50;99.90;;;;;;7413225;19;19915;-78
2023/08/13 03:42:25;;;;;;;17.77;11.23;;;24.50;99.90;;;;;;7408647;19;20250;-79
2023/08/13 03:44:51;;;;;;;19.15;11.85;;;24.50;99.90;;;;;;7415535;19;19914;-79
2023/08/13 03:47:17;;;;;;;19.67;10.52;;;24.50;99.90;;;;;;7416966;19;19931;-79
2023/08/13 03:49:46;;;;;;;17.50;12.68;;;24.50;99.90;;;;;;7419362;19;19926;-79
2023/08/13 03:52:13;;;;;;;20.58;12.23;;;24.50;99.90;;;;;;7420786;19;19930;-79
2023/08/13 03:54:39;;;;;;;16.23;10.60;;;24.50;99.90;;;;;;7423956;19;19937;-79
2023/08/13 03:57:06;;;;;;;16.77;10.73;;;24.50;99.90;;;;;;7415829;19;19907;-79
2023/08/13 03:59:32;;;;;;;18.88;10.82;;;24.50;99.90;;;;;;7417521;19;19926;-79
2023/08/13 04:01:58;;;;;;;17.33;10.85;;;24.40;99.90;;;;;;7412441;19;19922;-79
2023/08/13 04:04:24;;;;;;;;;;;24.50;99.90;;;;;;7413965;19;19914;-78
2023/08/13 04:06:52;;;;;;;17.58;11.98;;;24.50;99.90;;;;;;7411948;19;20406;-78
2023/08/13 04:09:17;;;;;;;17.63;11.02;;;24.50;99.90;;;;;;7415405;19;19924;-78
2023/08/13 04:11:44;;;;;;;15.73;10.77;;;24.40;99.90;;;;;;7412938;19;19919;-79
2023/08/13 04:14:09;;;;;;;18.42;11.30;;;24.40;99.90;;;;;;7393483;19;19942;-78
2023/08/13 04:16:35;;;;;;;17.67;11.07;;;24.40;99.90;;;;;;7417053;19;19990;-79
2023/08/13 04:19:01;;;;;;;19.88;10.80;;;24.40;99.90;;;;;;7418137;19;20014;-78
2023/08/13 04:21:27;;;;;;;18.50;11.38;;;24.40;99.90;;;;;;7417020;19;19943;-78
2023/08/13 04:23:56;;;;;;;16.88;11.75;;;24.40;99.90;;;;;;7418698;19;19949;-79
2023/08/13 04:26:23;;;;;;;21.67;12.15;;;24.30;99.90;;;;;;7420266;19;19915;-79
2023/08/13 04:28:49;;;;;;;16.63;10.63;;;24.30;99.90;;;;;;7415147;19;19925;-78
2023/08/13 04:31:16;;;;;;;20.00;12.40;;;24.30;99.90;;;;;;7415710;19;20240;-80
2023/08/13 04:33:42;;;;;;;19.50;11.15;;;24.30;99.90;;;;;;7418631;19;19915;-79
2023/08/13 04:36:08;;;;;;;18.35;10.65;;;24.30;99.90;;;;;;7408183;19;19940;-79
2023/08/13 04:38:34;;;;;;;19.33;11.90;;;24.30;99.90;;;;;;7415102;19;20487;-79
2023/08/13 04:41:02;;;;;;;16.55;11.23;;;24.30;99.90;;;;;;7415596;19;19939;-78
2023/08/13 04:43:27;;;;;;;17.45;12.55;;;24.30;99.90;;;;;;7410196;19;19914;-79
2023/08/13 04:45:53;;;;;;;20.27;11.80;;;24.30;99.90;;;;;;7415704;19;19923;-78
2023/08/13 04:48:46;;;;;;;16.73;12.68;;;24.30;99.90;;;;;;7415762;19;19951;-78
2023/08/13 04:51:15;;;;;;;18.58;12.50;;;24.20;99.90;;;;;;7417507;19;19925;-79
2023/08/13 04:53:42;;;;;;;20.80;12.35;;;24.20;99.90;;;;;;7416165;19;19938;-78
2023/08/13 04:56:08;;;;;;;17.60;12.13;;;24.10;99.90;;;;;;7412277;19;19922;-79
2023/08/13 04:58:35;;;;;;;20.02;12.10;;;24.10;99.90;;;;;;7418082;19;20266;-79
2023/08/13 05:01:02;;;;;;;18.58;11.43;;;24.10;99.90;;;;;;7417754;19;19914;-79
2023/08/13 05:03:28;;;;;;;20.85;12.13;;;24.10;99.90;;;;;;7415347;19;21051;-80
2023/08/13 05:05:54;;;;;;;20.25;11.15;;;24.20;99.90;;;;;;7421228;19;19939;-79
2023/08/13 05:08:20;;;;;;;19.13;12.20;;;24.20;99.90;;;;;;7414574;19;19922;-79
2023/08/13 05:10:47;;;;;;;21.73;11.10;;;24.10;99.90;;;;;;7413762;19;20282;-79
2023/08/13 05:13:14;;;;;;;17.73;10.13;;;24.20;99.90;;;;;;7416447;19;19922;-79
2023/08/13 05:15:40;;;;;;;15.60;10.88;;;24.10;99.90;;;;;;7387648;19;19939;-79
2023/08/13 05:18:06;;;;;;;19.35;10.75;;;24.20;99.90;;;;;;7418569;19;19922;-80
2023/08/13 05:20:32;;;;;;;20.15;12.23;;;24.20;99.90;;;;;;7414540;19;19958;-79
2023/08/13 05:22:58;;;;;;;19.63;11.75;;;24.20;99.90;;;;;;7421484;19;19938;-79
2023/08/13 05:25:26;;;;;;;19.10;11.63;;;24.20;99.90;;;;;;7416321;19;19922;-79
2023/08/13 05:27:52;;;;;;;21.33;12.95;;;24.20;99.90;;;;;;7414117;19;19914;-79
2023/08/13 05:30:18;;;;;;;20.50;12.18;;;24.20;99.90;;;;;;7411715;19;19925;-78
2023/08/13 05:32:44;;;;;;;20.00;11.63;;;24.20;99.90;;;;;;7415367;19;19914;-78
2023/08/13 05:35:10;;;;;;;17.25;10.82;;;24.30;99.90;;;;;;7413517;19;19986;-79
2023/08/13 05:37:36;;;;;;;18.33;11.13;;;24.30;99.90;;;;;;7414063;19;20260;-79
2023/08/13 05:40:02;;;;;;;16.73;10.75;;;24.30;99.90;;;;;;7418037;19;20571;-79
2023/08/13 05:42:27;;;;;;;17.27;10.65;;;24.30;99.90;;;;;;7414883;19;19941;-79
2023/08/13 05:44:53;;;;;;;16.08;10.32;;;24.40;99.90;;;;;;7414784;19;20294;-79
2023/08/13 05:47:22;;;;;;;19.80;12.23;;;24.50;99.90;;;;;;7395127;19;19919;-81
2023/08/13 05:49:47;;;;;;;15.95;11.43;;;24.50;99.90;;;;;;7422517;19;20243;-79
2023/08/13 05:52:15;;;;;;;17.58;11.75;;;24.50;99.90;;;;;;7411905;19;19923;-79
2023/08/13 05:54:41;;;;;;;19.98;11.68;;;24.60;99.90;;;;;;7415483;19;20181;-79
2023/08/13 05:57:07;;;;;;;17.42;11.65;;;24.60;99.90;;;;;;7413602;19;20014;-79
2023/08/13 05:59:33;;;;;;;25.85;13.05;;;24.70;99.90;;;;;;7410363;19;19910;-79
2023/08/13 06:01:59;;;;;;;19.88;13.27;;;24.70;99.90;;;;;;7416459;19;19914;-78
2023/08/13 06:04:25;;;;;;;23.60;13.88;;;24.80;99.90;;;;;;7412352;19;19914;-78
2023/08/13 06:06:51;;;;;;;19.10;14.15;;;24.80;99.90;;;;;;7418271;19;19922;-78
2023/08/13 06:09:16;;;;;;;19.55;13.43;;;24.90;99.90;;;;;;7412134;19;19931;-78
2023/08/13 06:11:42;;;;;;;22.85;13.23;;;24.90;99.90;;;;;;7413933;19;19977;-79
2023/08/13 06:14:08;;;;;;;21.20;13.23;;;25.00;99.90;;;;;;7413220;19;19919;-79
2023/08/13 06:16:35;;;;;;;22.58;13.68;;;25.00;99.90;;;;;;7415395;19;19931;-78
2023/08/13 06:19:01;;;;;;;21.30;13.40;;;25.10;99.90;;;;;;7417498;19;20503;-79
2023/08/13 06:21:27;;;;;;;18.85;13.02;;;25.10;99.90;;;;;;7412428;19;19923;-79
2023/08/13 06:23:53;;;;;;;16.85;12.75;;;25.10;99.90;;;;;;7416380;19;20563;-79
2023/08/13 06:26:19;;;;;;;19.75;14.85;;;25.20;99.90;;;;;;7381681;19;19923;-80
2023/08/13 06:28:46;;;;;;;19.38;13.40;;;25.30;99.90;;;;;;7419295;19;20013;-79
2023/08/13 06:31:12;;;;;;;22.52;14.65;;;25.30;99.90;;;;;;7414488;19;19918;-79
2023/08/13 06:33:38;;;;;;;22.30;14.55;;;25.30;99.90;;;;;;7420102;19;19987;-79
2023/08/13 06:36:04;;;;;;;19.75;14.18;;;25.40;99.90;;;;;;7418418;19;19946;-79
2023/08/13 06:38:31;;;;;;;25.95;17.33;;;25.50;99.90;;;;;;7419746;19;19934;-79
2023/08/13 06:41:06;;;;;;;22.13;15.25;;;25.60;99.90;;;;;;7411902;19;20286;-79
2023/08/13 06:43:33;;;;;;;24.92;16.70;;;25.50;99.90;;;;;;7411002;19;19919;-78
2023/08/13 06:46:01;;;;;;;23.45;15.50;;;25.50;99.90;;;;;;7413408;19;19931;-79
2023/08/13 06:48:28;;;;;;;24.70;16.48;;;25.40;99.90;;;;;;7416917;19;19933;-79
2023/08/13 06:50:57;;;;;;;23.77;17.60;;;25.50;99.90;;;;;;7414570;19;19931;-79
2023/08/13 06:53:25;;;;;;;23.02;16.23;;;25.50;99.90;;;;;;7415650;19;19939;-79
2023/08/13 06:55:51;;;;;;;23.80;16.20;;;25.70;99.90;;;;;;7418140;19;19927;-79
2023/08/13 06:58:17;;;;;;;23.90;17.25;;;25.60;99.90;;;;;;7411148;19;19919;-79
2023/08/13 07:00:46;;;;;;;21.40;15.77;;;25.70;99.90;;;;;;7416318;19;19918;-79
2023/08/13 07:03:12;;;;;;;21.58;15.93;;;25.80;99.90;;;;;;7412995;19;19914;-78
2023/08/13 07:05:40;;;;;;;20.73;14.73;;;25.80;99.90;;;;;;7415079;19;19946;-79
2023/08/13 07:08:10;;;;;;;21.08;14.27;;;25.90;99.90;;;;;;7408538;19;19950;-79
2023/08/13 07:10:36;;;;;;;22.05;15.13;;;26.10;99.90;;;;;;7410915;19;19922;-78
2023/08/13 07:13:03;;;;;;;21.38;14.93;;;26.10;99.90;;;;;;7410180;19;19922;-78
2023/08/13 07:15:29;;;;;;;22.98;14.55;;;26.20;99.90;;;;;;7382655;19;20424;-79
2023/08/13 07:17:55;;;;;;;21.52;14.55;;;26.40;99.90;;;;;;7412925;19;19918;-79
2023/08/13 07:20:21;;;;;;;17.90;13.77;;;26.40;99.90;;;;;;7411327;19;19915;-79
2023/08/13 07:22:49;;;;;;;23.05;16.85;;;26.60;99.90;;;;;;7410987;19;19911;-78
2023/08/13 07:25:15;;;;;;;19.90;14.13;;;26.70;99.90;;;;;;7404234;19;20346;-78
2023/08/13 07:27:43;;;;;;;22.00;14.10;;;27.00;99.90;;;;;;7411602;19;19914;-79
2023/08/13 07:30:10;;;;;;;18.33;14.30;;;27.20;99.90;;;;;;7412121;19;19954;-79
2023/08/13 07:32:38;;;;;;;23.70;16.63;;;27.20;99.90;;;;;;7412272;19;19910;-79
2023/08/13 07:35:06;;;;;;;19.42;13.25;;;26.80;99.90;;;;;;7408715;19;19950;-78
2023/08/13 07:37:33;;;;;;;20.52;12.32;;;26.70;99.90;;;;;;7411430;19;20251;-78
2023/08/13 07:39:59;;;;;;;22.42;13.18;;;26.70;99.90;;;;;;7410625;19;19922;-78
2023/08/13 07:42:25;;;;;;;21.05;13.07;;;26.80;99.90;;;;;;7412773;19;20468;-79
2023/08/13 07:44:51;;;;;;;21.15;14.30;;;26.70;99.90;;;;;;7413047;19;19931;-79
2023/08/13 07:47:19;;;;;;;20.85;13.70;;;26.70;99.90;;;;;;7409234;19;19922;-78
2023/08/13 07:49:45;;;;;;;19.27;12.55;;;26.60;99.90;;;;;;7408247;19;19923;-78
2023/08/13 07:52:14;;;;;;;19.05;12.98;;;26.90;99.90;;;;;;7412353;19;19910;-78
2023/08/13 07:54:39;;;;;;;17.35;13.02;;;27.10;99.90;;;;;;7414184;19;19944;-78
2023/08/13 07:57:05;;;;;;;18.65;12.27;;;27.20;99.90;;;;;;7410217;19;19915;-79
2023/08/13 07:59:31;;;;;;;19.17;12.60;;;27.30;99.90;;;;;;7392588;19;20037;-78
2023/08/13 08:01:58;;;;;;;15.18;11.77;;;27.40;99.90;;;;;;7340657;19;19915;-79
2023/08/13 08:04:24;;;;;;;17.50;12.63;;;27.50;99.90;;;;;;7410817;19;19922;-80
2023/08/13 08:06:50;;;;;;;21.38;11.65;;;27.60;99.90;;;;;;7411570;19;19914;-79
2023/08/13 08:09:16;;;;;;;15.27;10.65;;;27.70;99.90;;;;;;7411767;19;20271;-79
2023/08/13 08:11:41;;;;;;;18.77;11.77;;;27.80;99.50;;;;;;7413049;19;19978;-79
2023/08/13 08:14:07;;;;;;;19.45;12.38;;;27.50;99.30;;;;;;7409720;19;20021;-79
2023/08/13 08:16:33;;;;;;;22.88;12.27;;;27.30;99.90;;;;;;7412323;19;19946;-79
2023/08/13 08:18:59;;;;;;;;;;;27.30;99.80;;;;;;7408127;19;20031;-78
2023/08/13 08:21:25;;;;;;;18.73;12.77;;;27.20;99.90;;;;;;7408680;19;19934;-78
2023/08/13 08:23:51;;;;;;;18.52;13.20;;;27.20;99.80;;;;;;7411994;19;19926;-78
2023/08/13 08:26:16;;;;;;;17.48;11.38;;;27.30;99.80;;;;;;7410792;19;19915;-79
2023/08/13 08:28:42;;;;;;;18.83;12.85;;;27.50;98.90;;;;;;7411181;19;19923;-79
2023/08/13 08:31:08;;;;;;;16.48;11.93;;;27.10;99.90;;;;;;7410592;19;19923;-78
2023/08/13 08:33:34;;;;;;;18.27;11.30;;;27.20;99.90;;;;;;7418288;19;19926;-79
2023/08/13 08:36:00;;;;;;;16.25;10.35;;;27.50;99.90;;;;;;7419525;19;20382;-79
2023/08/13 08:38:26;;;;;;;14.90;10.20;;;27.70;99.20;;;;;;7419072;19;19957;-79
2023/08/13 08:40:56;;;;;;;16.48;10.68;;;28.00;99.10;;;;;;7419756;19;19919;-79
2023/08/13 08:43:24;;;;;;;20.35;11.73;;;28.50;98.10;;;;;;7415659;19;20350;-78
2023/08/13 08:45:51;;;;;;;17.23;12.75;;;29.50;94.40;;;;;;7363926;19;19921;-79
2023/08/13 08:48:17;;;;;;;15.70;12.25;;;30.30;91.80;;;;;;7414607;19;19931;-79
2023/08/13 08:50:44;;;;;;;17.15;13.30;;;31.00;90.10;;;;;;7416233;19;19925;-79
2023/08/13 08:53:10;;;;;;;16.75;11.18;;;31.30;88.20;;;;;;7386020;19;19927;-80
2023/08/13 08:55:37;;;;;;;14.98;10.63;;;31.80;85.40;;;;;;7364258;19;19922;-79
2023/08/13 08:58:03;;;;;;;14.63;10.68;;;32.40;81.70;;;;;;7412887;19;19915;-78
2023/08/13 09:00:29;;;;;;;14.88;9.93;;;32.90;79.00;;;;;;7416593;19;19938;-78
2023/08/13 09:02:55;;;;;;;;;;;32.90;77.10;;;;;;7423390;19;19935;-78
2023/08/13 09:05:22;;;;;;;14.75;9.98;;;32.20;76.90;;;;;;7391855;19;19947;-79
2023/08/13 09:07:48;;;;;;;12.45;10.18;;;31.60;81.50;;;;;;7415037;19;19921;-78
2023/08/13 09:10:14;;;;;;;16.63;11.27;;;32.30;81.50;;;;;;7395785;19;19923;-80
2023/08/13 09:12:41;;;;;;;14.05;10.75;;;32.70;78.80;;;;;;7418086;19;19922;-79
2023/08/13 09:15:09;;;;;;;12.88;11.25;;;32.60;79.40;;;;;;7412441;19;20346;-79
2023/08/13 09:17:37;;;;;;;13.02;8.77;;;33.50;76.50;;;;;;7413498;19;20317;-79
2023/08/13 09:20:23;;;;;;;12.68;9.45;;;33.50;75.20;;;;;;7416666;19;19922;-80
2023/08/13 09:22:51;;;;;;;14.07;12.30;;;34.60;72.70;;;;;;7415159;19;20529;-79
2023/08/13 09:25:19;;;;;;;15.43;10.18;;;34.60;70.30;;;;;;7393902;19;20026;-80
2023/08/13 09:27:46;;;;;;;11.85;10.23;;;35.00;69.80;;;;;;7419343;19;19911;-80
2023/08/13 09:30:31;;;;;;;13.70;10.18;;;35.60;68.90;;;;;;7415578;19;19918;-79
2023/08/13 09:32:58;;;;;;;15.10;11.68;;;35.50;67.70;;;;;;7415309;19;19915;-79
2023/08/13 09:35:25;;;;;;;12.63;10.10;;;35.30;67.00;;;;;;7415212;19;19941;-79
2023/08/13 09:37:52;;;;;;;14.23;10.45;;;35.60;67.60;;;;;;7415566;19;19914;-79
2023/08/13 09:40:18;;;;;;;12.60;9.75;;;35.10;66.70;;;;;;7419463;19;19915;-79
2023/08/13 09:42:46;;;;;;;13.45;10.10;;;34.20;69.20;;;;;;7366438;19;19925;-79
2023/08/13 09:45:16;;;;;;;12.98;9.43;;;34.20;69.60;;;;;;7423920;19;19923;-79
2023/08/13 09:47:45;;;;;;;13.98;8.75;;;34.90;69.20;;;;;;7420492;19;19957;-79
2023/08/13 09:50:13;;;;;;;11.75;9.98;;;35.10;67.60;;;;;;7416354;19;19918;-79
2023/08/13 09:52:44;;;;;;;13.40;8.70;;;35.50;66.90;;;;;;7419138;19;19954;-79
2023/08/13 09:55:15;;;;;;;12.13;8.52;;;36.30;64.60;;;;;;7423818;19;19957;-79
2023/08/13 09:57:43;;;;;;;12.88;9.15;;;36.20;64.50;;;;;;7424349;19;19930;-79
2023/08/13 10:00:11;;;;;;;13.82;9.95;;;36.40;64.40;;;;;;7418153;19;19907;-79
2023/08/13 10:02:39;;;;;;;15.70;10.55;;;36.40;63.70;;;;;;7420714;19;19935;-79
2023/08/13 10:05:06;;;;;;;13.00;9.77;;;35.40;65.30;;;;;;7421646;19;19907;-79
2023/08/13 10:07:32;;;;;;;11.27;9.98;;;36.00;65.50;;;;;;7421870;19;19970;-80
2023/08/13 10:10:02;;;;;;;10.65;8.60;;;36.20;64.30;;;;;;7422763;19;19943;-80
2023/08/13 10:12:29;;;;;;;10.15;8.82;;;35.10;66.10;;;;;;7420772;19;19953;-80
2023/08/13 10:14:55;;;;;;;11.13;9.13;;;35.80;66.20;;;;;;7368344;19;19915;-80
2023/08/13 10:17:26;;;;;;;11.90;7.53;;;35.70;65.10;;;;;;7421098;19;19926;-80
2023/08/13 10:19:55;;;;;;;15.23;10.52;;;35.50;66.50;;;;;;7424555;19;20203;-80
2023/08/13 10:22:40;;;;;;;10.30;8.65;;;35.50;65.20;;;;;;7418162;19;20454;-81
2023/08/13 10:25:07;;;;;;;12.05;8.27;;;35.80;64.30;;;;;;7419340;19;19915;-81
2023/08/13 10:27:42;;;;;;;12.20;8.45;;;35.20;65.40;;;;;;7401043;19;19927;-81
2023/08/13 10:30:15;;;;;;;8.98;6.05;;;34.50;67.00;;;;;;7419310;19;19946;-81
2023/08/13 10:32:51;;;;;;;9.70;7.88;;;33.80;69.30;;;;;;7418318;19;19906;-79
2023/08/13 10:35:42;;;;;;;11.18;8.10;;;32.90;72.20;;;;;;7416212;19;20359;-79
2023/08/13 10:38:08;;;;;;;11.38;8.77;;;32.50;74.90;;;;;;7420733;19;19926;-79
2023/08/13 10:40:35;;;;;;;11.35;8.68;;;32.10;75.20;;;;;;7423692;19;19915;-79
2023/08/13 10:43:06;;;;;;;11.90;8.05;;;31.90;76.90;;;;;;7421722;19;20021;-80
2023/08/13 10:45:35;;;;;;;10.98;9.13;;;32.70;76.00;;;;;;7415745;19;19911;-80
2023/08/13 10:48:03;;;;;;;12.25;8.35;;;33.20;73.50;;;;;;7423831;19;19921;-80
2023/08/13 10:50:32;;;;;;;14.60;7.80;;;33.20;73.40;;;;;;7417674;19;19923;-80
2023/08/13 10:53:09;;;;;;;10.25;7.63;;;33.80;72.60;;;;;;7419711;19;19918;-80
2023/08/13 10:55:40;;;;;;;11.57;8.20;;;33.80;72.20;;;;;;7395010;19;19921;-81
2023/08/13 10:58:08;;;;;;;9.98;7.90;;;33.80;71.30;;;;;;7416997;19;19919;-80
2023/08/13 11:00:42;;;;;;;15.05;11.90;;;33.90;71.70;;;;;;7421174;19;19929;-80
2023/08/13 11:03:19;;;;;;;11.18;8.70;;;34.10;70.40;;;;;;7406002;19;19934;-80
2023/08/13 11:05:47;;;;;;;12.25;7.30;;;33.40;71.90;;;;;;7422675;19;19914;-80
2023/08/13 11:08:17;;;;;;;12.98;7.88;;;33.70;72.10;;;;;;7420656;19;20019;-79
2023/08/13 11:10:46;;;;;;;11.15;7.70;;;34.00;71.00;;;;;;7399827;19;19926;-80
2023/08/13 11:13:13;;;;;;;9.98;7.63;;;33.40;71.40;;;;;;7396468;19;19935;-80
2023/08/13 11:15:41;;;;;;;11.48;7.53;;;33.00;73.20;;;;;;7420537;19;19943;-80
2023/08/13 11:18:07;;;;;;;9.85;8.20;;;33.40;72.40;;;;;;7416934;19;19919;-80
2023/08/13 11:20:34;;;;;;;10.57;6.57;;;33.40;72.30;;;;;;7422498;19;20236;-83
2023/08/13 11:23:13;;;;;;;9.57;7.68;;;33.40;72.50;;;;;;7421750;19;20417;-81
2023/08/13 11:25:42;;;;;;;11.13;6.57;;;32.10;74.00;;;;;;7419999;19;19910;-82
2023/08/13 11:28:08;;;;;;;8.80;6.35;;;32.70;74.50;;;;;;7418215;19;19907;-81
2023/08/13 11:30:39;;;;;;;9.55;6.90;;;33.20;72.90;;;;;;7416103;19;19924;-79
2023/08/13 11:33:05;;;;;;;8.98;6.18;;;33.10;73.10;;;;;;7379871;19;19919;-79
2023/08/13 11:35:31;;;;;;;9.20;6.40;;;33.50;71.60;;;;;;7414148;19;19925;-79
2023/08/13 11:37:57;;;;;;;9.07;6.15;;;33.80;70.30;;;;;;7413043;19;19986;-79
2023/08/13 11:40:23;;;;;;;8.57;6.05;;;34.00;71.10;;;;;;7410073;19;20871;-79
2023/08/13 11:42:57;;;;;;;8.93;6.32;;;34.50;69.40;;;;;;7407929;19;19921;-79
2023/08/13 11:45:28;;;;;;;8.35;5.60;;;33.60;70.40;;;;;;7406422;19;19931;-78
2023/08/13 11:48:09;;;;;;;10.73;7.03;;;34.00;70.10;;;;;;7410722;19;19933;-79
2023/08/13 11:50:36;;;;;;;8.00;6.57;;;34.10;68.10;;;;;;7373927;19;19986;-78
2023/08/13 11:53:06;;;;;;;9.07;5.95;;;34.80;68.50;;;;;;7412133;19;19945;-80
2023/08/13 11:55:34;;;;;;;8.48;5.70;;;34.60;67.60;;;;;;7420833;19;19930;-81
2023/08/13 11:58:01;;;;;;;8.68;6.18;;;34.40;67.60;;;;;;7420855;19;19947;-79
2023/08/13 12:00:28;;;;;;;8.40;6.28;;;35.10;66.20;;;;;;7414912;19;19911;-80
2023/08/13 12:02:58;;;;;;;8.10;5.65;;;35.20;65.90;;;;;;7416852;19;19926;-78
2023/08/13 12:05:25;;;;;;;9.18;6.28;;;35.70;64.10;;;;;;7413483;19;19919;-82
2023/08/13 12:07:52;;;;;;;7.57;6.07;;;35.10;63.10;;;;;;7421593;19;20343;-80
2023/08/13 12:10:18;;;;;;;6.97;5.22;;;34.40;64.80;;;;;;7423168;19;19917;-80
2023/08/13 12:12:44;;;;;;;10.15;5.47;;;34.60;63.30;;;;;;7423688;19;19919;-80
2023/08/13 12:15:10;;;;;;;7.05;6.35;;;34.50;62.70;;;;;;7420613;19;19919;-79
2023/08/13 12:17:37;;;;;;;7.85;5.95;;;34.70;64.00;;;;;;7401026;19;19926;-79
2023/08/13 12:20:06;;;;;;;8.95;5.72;;;35.20;62.00;;;;;;7419745;19;20560;-80
2023/08/13 12:22:32;;;;;;;9.23;5.25;;;34.00;65.30;;;;;;7421589;19;19918;-81
2023/08/13 12:24:58;;;;;;;7.00;4.97;;;34.10;65.90;;;;;;7420663;19;19931;-80
2023/08/13 12:27:24;;;;;;;8.25;6.18;;;35.40;64.20;;;;;;7421932;19;20512;-80
2023/08/13 12:29:49;;;;;;;8.32;5.93;;;35.30;63.40;;;;;;7423792;19;20023;-82
2023/08/13 12:32:16;;;;;;;10.27;4.28;;;34.90;63.90;;;;;;7420900;19;20354;-80
2023/08/13 12:34:41;;;;;;;8.88;3.70;;;35.30;63.60;;;;;;7419592;19;19953;-79